sensor_id;sensor_type;location;lat;lon;timestamp;temperature;humidity
15296;DHT22;7749;49.964;7.890;2023-05-01T00:01:23;12.70;99.90
15296;DHT22;7749;49.964;7.890;2023-05-01T00:03:51;12.70;99.90
15296;DHT22;7749;49.964;7.890;2023-05-01T00:06:19;12.80;1.00
15296;DHT22;7749;49.964;7.890;2023-05-01T00:08:47;12.60;1.00
15296;DHT22;7749;49.964;7.890;2023-05-01T00:11:15;12.40;99.90
15296;DHT22;7749;49.964;7.890;2023-05-01T00:13:42;12.40;1.00
15296;DHT22;7749;49.964;7.890;2023-05-01T00:16:11;12.40;99.90
15296;DHT22;7749;49.964;7.890;2023-05-01T00:18:39;12.40;1.00
15296;DHT22;7749;49.964;7.890;2023-05-01T00:21:07;12.40;1.00
15296;DHT22;7749;49.964;7.890;2023-05-01T00:23:34;12.30;1.00
15296;DHT22;7749;49.964;7.890;2023-05-01T00:26:02;12.20;30.60
15296;DHT22;7749;49.964;7.890;2023-05-01T00:28:30;12.10;99.90
15296;DHT22;7749;49.964;7.890;2023-05-01T00:30:58;12.00;1.00
15296;DHT22;7749;49.964;7.890;2023-05-01T00:33:29;12.00;1.00
15296;DHT22;7749;49.964;7.890;2023-05-01T00:35:59;11.90;1.00
15296;DHT22;7749;49.964;7.890;2023-05-01T00:38:27;11.90;1.00
15296;DHT22;7749;49.964;7.890;2023-05-01T00:40:54;12.00;1.00
15296;DHT22;7749;49.964;7.890;2023-05-01T00:43:22;11.90;99.90
15296;DHT22;7749;49.964;7.890;2023-05-01T00:45:50;11.90;99.90
15296;DHT22;7749;49.964;7.890;2023-05-01T00:48:18;11.80;1.00
15296;DHT22;7749;49.964;7.890;2023-05-01T00:50:48;11.70;1.00
15296;DHT22;7749;49.964;7.890;2023-05-01T00:53:18;11.60;1.00
15296;DHT22;7749;49.964;7.890;2023-05-01T00:55:47;11.80;1.00
15296;DHT22;7749;49.964;7.890;2023-05-01T00:58:16;11.80;1.00
15296;DHT22;7749;49.964;7.890;2023-05-01T01:00:44;11.80;1.00
15296;DHT22;7749;49.964;7.890;2023-05-01T01:03:11;11.80;1.00
15296;DHT22;7749;49.964;7.890;2023-05-01T01:06:06;11.80;1.00
15296;DHT22;7749;49.964;7.890;2023-05-01T01:11:32;11.70;1.00
15296;DHT22;7749;49.964;7.890;2023-05-01T01:14:32;11.80;1.00
15296;DHT22;7749;49.964;7.890;2023-05-01T01:17:41;11.80;1.00
15296;DHT22;7749;49.964;7.890;2023-05-01T01:34:39;11.40;1.00
15296;DHT22;7749;49.964;7.890;2023-05-01T01:37:28;11.50;1.00
15296;DHT22;7749;49.964;7.890;2023-05-01T01:40:06;11.50;1.00
15296;DHT22;7749;49.964;7.890;2023-05-01T01:42:52;11.50;1.00
15296;DHT22;7749;49.964;7.890;2023-05-01T01:45:36;11.50;1.00
15296;DHT22;7749;49.964;7.890;2023-05-01T01:48:09;11.40;1.00
15296;DHT22;7749;49.964;7.890;2023-05-01T01:50:41;11.10;1.00
15296;DHT22;7749;49.964;7.890;2023-05-01T01:53:12;11.30;1.00
15296;DHT22;7749;49.964;7.890;2023-05-01T01:55:43;11.00;1.00
15296;DHT22;7749;49.964;7.890;2023-05-01T01:58:12;11.10;1.00
15296;DHT22;7749;49.964;7.890;2023-05-01T02:00:43;11.10;1.00
15296;DHT22;7749;49.964;7.890;2023-05-01T02:03:12;11.10;1.00
15296;DHT22;7749;49.964;7.890;2023-05-01T02:05:42;11.10;1.00
15296;DHT22;7749;49.964;7.890;2023-05-01T02:08:10;11.70;1.00
15296;DHT22;7749;49.964;7.890;2023-05-01T02:10:40;11.00;1.00
15296;DHT22;7749;49.964;7.890;2023-05-01T02:13:12;11.00;1.00
15296;DHT22;7749;49.964;7.890;2023-05-01T02:15:41;11.00;1.00
15296;DHT22;7749;49.964;7.890;2023-05-01T02:18:11;11.00;1.00
15296;DHT22;7749;49.964;7.890;2023-05-01T02:20:40;10.90;1.00
15296;DHT22;7749;49.964;7.890;2023-05-01T02:23:09;10.90;1.00
15296;DHT22;7749;49.964;7.890;2023-05-01T02:25:38;10.80;1.00
15296;DHT22;7749;49.964;7.890;2023-05-01T02:28:12;10.90;1.00
15296;DHT22;7749;49.964;7.890;2023-05-01T02:30:42;10.80;1.00
15296;DHT22;7749;49.964;7.890;2023-05-01T02:33:11;10.80;1.00
15296;DHT22;7749;49.964;7.890;2023-05-01T02:35:40;10.70;1.00
15296;DHT22;7749;49.964;7.890;2023-05-01T02:38:08;10.70;1.00
15296;DHT22;7749;49.964;7.890;2023-05-01T02:40:38;10.80;1.00
15296;DHT22;7749;49.964;7.890;2023-05-01T02:43:09;10.60;1.00
15296;DHT22;7749;49.964;7.890;2023-05-01T02:45:39;10.60;1.00
15296;DHT22;7749;49.964;7.890;2023-05-01T02:48:09;10.60;1.00
15296;DHT22;7749;49.964;7.890;2023-05-01T02:50:38;10.60;1.00
15296;DHT22;7749;49.964;7.890;2023-05-01T02:53:10;10.60;1.00
15296;DHT22;7749;49.964;7.890;2023-05-01T02:55:38;10.60;1.00
15296;DHT22;7749;49.964;7.890;2023-05-01T02:58:06;10.50;1.00
15296;DHT22;7749;49.964;7.890;2023-05-01T03:00:34;10.60;1.00
15296;DHT22;7749;49.964;7.890;2023-05-01T03:03:02;10.50;1.00
15296;DHT22;7749;49.964;7.890;2023-05-01T03:05:30;10.50;1.00
15296;DHT22;7749;49.964;7.890;2023-05-01T03:07:57;10.50;1.00
15296;DHT22;7749;49.964;7.890;2023-05-01T03:10:28;10.40;1.00
15296;DHT22;7749;49.964;7.890;2023-05-01T03:12:57;10.30;4.60
15296;DHT22;7749;49.964;7.890;2023-05-01T03:15:27;10.30;1.00
15296;DHT22;7749;49.964;7.890;2023-05-01T03:17:57;10.20;1.00
15296;DHT22;7749;49.964;7.890;2023-05-01T03:20:28;10.20;20.10
15296;DHT22;7749;49.964;7.890;2023-05-01T03:22:56;10.20;31.30
15296;DHT22;7749;49.964;7.890;2023-05-01T03:25:24;10.20;30.20
15296;DHT22;7749;49.964;7.890;2023-05-01T03:27:52;10.40;1.00
15296;DHT22;7749;49.964;7.890;2023-05-01T03:30:21;10.40;1.00
15296;DHT22;7749;49.964;7.890;2023-05-01T03:32:49;10.40;1.00
15296;DHT22;7749;49.964;7.890;2023-05-01T03:35:18;10.30;1.00
15296;DHT22;7749;49.964;7.890;2023-05-01T03:37:45;10.40;1.00
15296;DHT22;7749;49.964;7.890;2023-05-01T03:40:13;10.40;1.00
15296;DHT22;7749;49.964;7.890;2023-05-01T03:42:41;10.50;1.00
15296;DHT22;7749;49.964;7.890;2023-05-01T03:45:09;10.50;1.00
15296;DHT22;7749;49.964;7.890;2023-05-01T03:47:39;10.40;1.00
15296;DHT22;7749;49.964;7.890;2023-05-01T03:50:07;10.40;1.00
15296;DHT22;7749;49.964;7.890;2023-05-01T03:52:35;10.40;1.00
15296;DHT22;7749;49.964;7.890;2023-05-01T03:55:05;10.50;1.00
15296;DHT22;7749;49.964;7.890;2023-05-01T03:57:34;10.60;1.00
15296;DHT22;7749;49.964;7.890;2023-05-01T04:00:01;10.70;1.00
15296;DHT22;7749;49.964;7.890;2023-05-01T04:02:30;10.80;1.00
15296;DHT22;7749;49.964;7.890;2023-05-01T04:04:58;10.80;1.00
15296;DHT22;7749;49.964;7.890;2023-05-01T04:07:28;10.80;1.00
15296;DHT22;7749;49.964;7.890;2023-05-01T04:09:59;10.80;1.00
15296;DHT22;7749;49.964;7.890;2023-05-01T04:12:27;10.90;1.00
15296;DHT22;7749;49.964;7.890;2023-05-01T04:14:55;10.90;1.00
15296;DHT22;7749;49.964;7.890;2023-05-01T04:17:22;10.90;1.00
15296;DHT22;7749;49.964;7.890;2023-05-01T04:19:50;11.00;1.00
15296;DHT22;7749;49.964;7.890;2023-05-01T04:22:18;10.90;1.00
15296;DHT22;7749;49.964;7.890;2023-05-01T04:24:46;11.00;1.00
15296;DHT22;7749;49.964;7.890;2023-05-01T04:27:16;11.00;1.00
15296;DHT22;7749;49.964;7.890;2023-05-01T04:29:47;11.20;1.00
15296;DHT22;7749;49.964;7.890;2023-05-01T04:32:15;11.00;1.00
15296;DHT22;7749;49.964;7.890;2023-05-01T04:34:43;11.10;1.00
15296;DHT22;7749;49.964;7.890;2023-05-01T04:37:11;11.10;1.00
15296;DHT22;7749;49.964;7.890;2023-05-01T04:39:42;11.00;1.00
15296;DHT22;7749;49.964;7.890;2023-05-01T04:42:09;11.00;1.00
15296;DHT22;7749;49.964;7.890;2023-05-01T04:44:37;11.10;1.00
15296;DHT22;7749;49.964;7.890;2023-05-01T04:47:05;11.10;1.00
15296;DHT22;7749;49.964;7.890;2023-05-01T04:49:33;11.10;1.00
15296;DHT22;7749;49.964;7.890;2023-05-01T04:52:04;11.20;1.00
15296;DHT22;7749;49.964;7.890;2023-05-01T04:54:31;11.20;1.00
15296;DHT22;7749;49.964;7.890;2023-05-01T04:57:01;11.20;1.00
15296;DHT22;7749;49.964;7.890;2023-05-01T04:59:29;11.10;1.00
15296;DHT22;7749;49.964;7.890;2023-05-01T05:01:57;11.20;1.00
15296;DHT22;7749;49.964;7.890;2023-05-01T05:04:25;11.30;1.00
15296;DHT22;7749;49.964;7.890;2023-05-01T05:06:52;11.40;1.00
15296;DHT22;7749;49.964;7.890;2023-05-01T05:09:20;11.40;1.00
15296;DHT22;7749;49.964;7.890;2023-05-01T05:11:51;11.60;1.00
15296;DHT22;7749;49.964;7.890;2023-05-01T05:14:19;11.70;1.00
15296;DHT22;7749;49.964;7.890;2023-05-01T05:16:46;11.60;1.00
15296;DHT22;7749;49.964;7.890;2023-05-01T05:19:15;11.60;1.00
15296;DHT22;7749;49.964;7.890;2023-05-01T05:21:42;11.60;1.00
15296;DHT22;7749;49.964;7.890;2023-05-01T05:24:10;11.50;1.00
15296;DHT22;7749;49.964;7.890;2023-05-01T05:26:37;11.70;1.00
15296;DHT22;7749;49.964;7.890;2023-05-01T05:29:08;11.80;1.00
15296;DHT22;7749;49.964;7.890;2023-05-01T05:31:36;12.00;1.00
15296;DHT22;7749;49.964;7.890;2023-05-01T05:34:07;12.00;1.00
15296;DHT22;7749;49.964;7.890;2023-05-01T05:36:34;12.00;1.00
15296;DHT22;7749;49.964;7.890;2023-05-01T05:39:05;12.20;1.00
15296;DHT22;7749;49.964;7.890;2023-05-01T05:41:33;12.30;1.00
15296;DHT22;7749;49.964;7.890;2023-05-01T05:44:00;12.40;99.90
15296;DHT22;7749;49.964;7.890;2023-05-01T05:46:32;12.50;99.90
15296;DHT22;7749;49.964;7.890;2023-05-01T05:48:59;12.50;99.90
15296;DHT22;7749;49.964;7.890;2023-05-01T05:51:27;12.50;99.90
15296;DHT22;7749;49.964;7.890;2023-05-01T05:53:55;12.60;99.90
15296;DHT22;7749;49.964;7.890;2023-05-01T05:56:22;12.60;99.90
15296;DHT22;7749;49.964;7.890;2023-05-01T05:58:50;12.70;99.90
15296;DHT22;7749;49.964;7.890;2023-05-01T06:01:18;12.60;99.90
15296;DHT22;7749;49.964;7.890;2023-05-01T06:03:45;12.70;99.90
15296;DHT22;7749;49.964;7.890;2023-05-01T06:06:13;12.60;1.00
15296;DHT22;7749;49.964;7.890;2023-05-01T06:08:41;12.70;1.00
15296;DHT22;7749;49.964;7.890;2023-05-01T06:11:13;12.70;1.00
15296;DHT22;7749;49.964;7.890;2023-05-01T06:13:41;12.70;1.00
15296;DHT22;7749;49.964;7.890;2023-05-01T06:16:09;12.70;43.60
15296;DHT22;7749;49.964;7.890;2023-05-01T06:18:39;12.70;96.40
15296;DHT22;7749;49.964;7.890;2023-05-01T06:21:06;12.70;99.90
15296;DHT22;7749;49.964;7.890;2023-05-01T06:23:34;12.60;99.90
15296;DHT22;7749;49.964;7.890;2023-05-01T06:26:02;12.80;48.40
15296;DHT22;7749;49.964;7.890;2023-05-01T06:28:32;12.80;1.00
15296;DHT22;7749;49.964;7.890;2023-05-01T06:31:00;13.00;1.00
15296;DHT22;7749;49.964;7.890;2023-05-01T06:33:27;13.20;1.00
15296;DHT22;7749;49.964;7.890;2023-05-01T06:35:58;13.10;1.00
15296;DHT22;7749;49.964;7.890;2023-05-01T06:38:26;13.20;1.00
15296;DHT22;7749;49.964;7.890;2023-05-01T06:40:54;13.40;99.90
15296;DHT22;7749;49.964;7.890;2023-05-01T06:43:21;13.50;99.90
15296;DHT22;7749;49.964;7.890;2023-05-01T06:45:49;13.80;1.00
15296;DHT22;7749;49.964;7.890;2023-05-01T06:48:17;13.90;99.90
15296;DHT22;7749;49.964;7.890;2023-05-01T06:50:44;14.00;99.90
15296;DHT22;7749;49.964;7.890;2023-05-01T06:53:12;14.20;1.00
15296;DHT22;7749;49.964;7.890;2023-05-01T06:55:40;14.50;99.90
15296;DHT22;7749;49.964;7.890;2023-05-01T06:58:10;14.80;99.90
15296;DHT22;7749;49.964;7.890;2023-05-01T07:00:51;14.90;1.00
15296;DHT22;7749;49.964;7.890;2023-05-01T07:03:19;15.10;1.00
15296;DHT22;7749;49.964;7.890;2023-05-01T07:05:49;15.40;1.00
15296;DHT22;7749;49.964;7.890;2023-05-01T07:08:17;15.40;1.00
15296;DHT22;7749;49.964;7.890;2023-05-01T07:10:44;15.70;99.90
15296;DHT22;7749;49.964;7.890;2023-05-01T07:13:15;15.90;1.00
15296;DHT22;7749;49.964;7.890;2023-05-01T07:15:43;16.10;99.90
15296;DHT22;7749;49.964;7.890;2023-05-01T07:18:11;16.30;1.00
15296;DHT22;7749;49.964;7.890;2023-05-01T07:20:39;16.40;1.00
15296;DHT22;7749;49.964;7.890;2023-05-01T07:23:07;16.20;1.00
15296;DHT22;7749;49.964;7.890;2023-05-01T07:25:36;16.00;1.00
15296;DHT22;7749;49.964;7.890;2023-05-01T07:28:11;16.00;1.00
15296;DHT22;7749;49.964;7.890;2023-05-01T07:30:39;16.20;1.00
15296;DHT22;7749;49.964;7.890;2023-05-01T07:33:07;16.30;99.90
15296;DHT22;7749;49.964;7.890;2023-05-01T07:35:34;16.50;99.90
15296;DHT22;7749;49.964;7.890;2023-05-01T07:38:04;16.50;99.90
15296;DHT22;7749;49.964;7.890;2023-05-01T07:40:32;16.50;99.90
15296;DHT22;7749;49.964;7.890;2023-05-01T07:43:01;16.80;99.90
15296;DHT22;7749;49.964;7.890;2023-05-01T07:45:28;16.80;99.90
15296;DHT22;7749;49.964;7.890;2023-05-01T07:47:56;17.00;99.90
15296;DHT22;7749;49.964;7.890;2023-05-01T07:50:24;16.90;99.90
15296;DHT22;7749;49.964;7.890;2023-05-01T07:52:52;16.90;99.90
15296;DHT22;7749;49.964;7.890;2023-05-01T07:55:23;17.10;41.00
15296;DHT22;7749;49.964;7.890;2023-05-01T07:57:51;17.20;1.00
15296;DHT22;7749;49.964;7.890;2023-05-01T08:00:22;17.50;1.00
15296;DHT22;7749;49.964;7.890;2023-05-01T08:02:51;17.70;1.00
15296;DHT22;7749;49.964;7.890;2023-05-01T08:05:20;17.90;1.00
15296;DHT22;7749;49.964;7.890;2023-05-01T08:07:47;17.90;1.00
15296;DHT22;7749;49.964;7.890;2023-05-01T08:10:15;18.20;1.00
15296;DHT22;7749;49.964;7.890;2023-05-01T08:12:43;18.20;1.00
15296;DHT22;7749;49.964;7.890;2023-05-01T08:15:10;18.00;1.00
15296;DHT22;7749;49.964;7.890;2023-05-01T08:17:39;17.90;1.00
15296;DHT22;7749;49.964;7.890;2023-05-01T08:20:07;18.00;1.00
15296;DHT22;7749;49.964;7.890;2023-05-01T08:22:35;18.10;1.00
15296;DHT22;7749;49.964;7.890;2023-05-01T08:25:04;18.20;1.00
15296;DHT22;7749;49.964;7.890;2023-05-01T08:27:32;18.60;1.00
15296;DHT22;7749;49.964;7.890;2023-05-01T08:30:00;18.70;1.00
15296;DHT22;7749;49.964;7.890;2023-05-01T08:32:28;18.70;1.00
15296;DHT22;7749;49.964;7.890;2023-05-01T08:34:55;18.80;1.00
15296;DHT22;7749;49.964;7.890;2023-05-01T08:37:25;19.00;1.00
15296;DHT22;7749;49.964;7.890;2023-05-01T08:39:53;19.00;1.00
15296;DHT22;7749;49.964;7.890;2023-05-01T08:42:21;18.80;1.00
15296;DHT22;7749;49.964;7.890;2023-05-01T08:44:50;18.60;1.00
15296;DHT22;7749;49.964;7.890;2023-05-01T08:47:18;18.70;1.00
15296;DHT22;7749;49.964;7.890;2023-05-01T08:49:47;18.90;1.00
15296;DHT22;7749;49.964;7.890;2023-05-01T08:52:17;18.70;1.00
15296;DHT22;7749;49.964;7.890;2023-05-01T08:54:47;19.00;1.00
15296;DHT22;7749;49.964;7.890;2023-05-01T08:57:17;19.20;1.00
15296;DHT22;7749;49.964;7.890;2023-05-01T08:59:45;19.50;1.00
15296;DHT22;7749;49.964;7.890;2023-05-01T09:02:14;19.70;1.00
15296;DHT22;7749;49.964;7.890;2023-05-01T09:04:42;19.70;1.00
15296;DHT22;7749;49.964;7.890;2023-05-01T09:07:10;19.90;1.00
15296;DHT22;7749;49.964;7.890;2023-05-01T09:09:39;19.80;1.00
15296;DHT22;7749;49.964;7.890;2023-05-01T09:12:25;19.70;1.00
15296;DHT22;7749;49.964;7.890;2023-05-01T09:14:54;19.90;1.00
15296;DHT22;7749;49.964;7.890;2023-05-01T09:17:23;20.00;1.00
15296;DHT22;7749;49.964;7.890;2023-05-01T09:19:51;20.00;1.00
15296;DHT22;7749;49.964;7.890;2023-05-01T09:22:20;19.90;1.00
15296;DHT22;7749;49.964;7.890;2023-05-01T09:24:48;20.00;1.00
15296;DHT22;7749;49.964;7.890;2023-05-01T09:27:15;20.40;1.00
15296;DHT22;7749;49.964;7.890;2023-05-01T09:29:44;20.50;1.00
15296;DHT22;7749;49.964;7.890;2023-05-01T09:32:25;20.70;1.00
15296;DHT22;7749;49.964;7.890;2023-05-01T09:35:13;20.90;1.00
15296;DHT22;7749;49.964;7.890;2023-05-01T09:37:41;21.00;1.00
15296;DHT22;7749;49.964;7.890;2023-05-01T09:40:15;21.30;1.00
15296;DHT22;7749;49.964;7.890;2023-05-01T09:42:51;21.90;99.90
15296;DHT22;7749;49.964;7.890;2023-05-01T09:45:19;22.20;99.90
15296;DHT22;7749;49.964;7.890;2023-05-01T09:47:47;22.10;99.90
15296;DHT22;7749;49.964;7.890;2023-05-01T09:50:30;21.50;99.90
15296;DHT22;7749;49.964;7.890;2023-05-01T09:53:02;21.40;99.90
15296;DHT22;7749;49.964;7.890;2023-05-01T09:55:34;21.00;99.90
15296;DHT22;7749;49.964;7.890;2023-05-01T09:58:05;21.20;99.90
15296;DHT22;7749;49.964;7.890;2023-05-01T10:00:46;21.50;99.90
15296;DHT22;7749;49.964;7.890;2023-05-01T10:03:15;21.50;99.90
15296;DHT22;7749;49.964;7.890;2023-05-01T10:05:43;22.00;99.90
15296;DHT22;7749;49.964;7.890;2023-05-01T10:08:11;22.70;99.90
15296;DHT22;7749;49.964;7.890;2023-05-01T10:10:41;22.80;99.90
15296;DHT22;7749;49.964;7.890;2023-05-01T10:13:17;22.40;99.90
15296;DHT22;7749;49.964;7.890;2023-05-01T10:15:47;22.80;99.90
15296;DHT22;7749;49.964;7.890;2023-05-01T10:18:17;22.90;99.90
15296;DHT22;7749;49.964;7.890;2023-05-01T10:20:45;22.60;99.90
15296;DHT22;7749;49.964;7.890;2023-05-01T10:23:13;23.00;99.90
15296;DHT22;7749;49.964;7.890;2023-05-01T10:25:41;22.80;99.90
15296;DHT22;7749;49.964;7.890;2023-05-01T10:28:11;22.90;99.90
15296;DHT22;7749;49.964;7.890;2023-05-01T10:30:39;22.70;99.90
15296;DHT22;7749;49.964;7.890;2023-05-01T10:33:07;22.80;99.90
15296;DHT22;7749;49.964;7.890;2023-05-01T10:35:38;22.80;99.90
15296;DHT22;7749;49.964;7.890;2023-05-01T10:38:16;22.70;99.90
15296;DHT22;7749;49.964;7.890;2023-05-01T10:40:47;22.80;99.90
15296;DHT22;7749;49.964;7.890;2023-05-01T10:43:28;23.20;99.90
15296;DHT22;7749;49.964;7.890;2023-05-01T10:54:21;23.20;99.90
15296;DHT22;7749;49.964;7.890;2023-05-01T10:56:48;23.20;99.90
15296;DHT22;7749;49.964;7.890;2023-05-01T10:59:16;23.10;99.90
15296;DHT22;7749;49.964;7.890;2023-05-01T11:01:45;23.50;99.90
15296;DHT22;7749;49.964;7.890;2023-05-01T11:09:42;23.80;99.90
15296;DHT22;7749;49.964;7.890;2023-05-01T11:12:15;23.80;99.90
15296;DHT22;7749;49.964;7.890;2023-05-01T11:20:57;24.30;99.90
15296;DHT22;7749;49.964;7.890;2023-05-01T11:23:02;24.20;99.90
15296;DHT22;7749;49.964;7.890;2023-05-01T11:25:30;24.50;99.90
15296;DHT22;7749;49.964;7.890;2023-05-01T11:28:01;25.00;99.90
15296;DHT22;7749;49.964;7.890;2023-05-01T11:30:39;25.30;99.90
15296;DHT22;7749;49.964;7.890;2023-05-01T11:33:08;25.80;99.90
15296;DHT22;7749;49.964;7.890;2023-05-01T11:35:37;25.70;99.90
15296;DHT22;7749;49.964;7.890;2023-05-01T11:38:05;27.00;99.90
15296;DHT22;7749;49.964;7.890;2023-05-01T11:40:33;28.00;99.90
15296;DHT22;7749;49.964;7.890;2023-05-01T11:45:29;27.80;99.90
15296;DHT22;7749;49.964;7.890;2023-05-01T11:47:57;26.90;99.90
15296;DHT22;7749;49.964;7.890;2023-05-01T11:50:34;26.20;99.90
15296;DHT22;7749;49.964;7.890;2023-05-01T11:53:09;25.70;99.90
15296;DHT22;7749;49.964;7.890;2023-05-01T11:55:41;26.20;99.90
15296;DHT22;7749;49.964;7.890;2023-05-01T11:58:09;26.20;99.90
15296;DHT22;7749;49.964;7.890;2023-05-01T12:00:41;26.00;99.90
15296;DHT22;7749;49.964;7.890;2023-05-01T12:03:11;26.20;99.90
15296;DHT22;7749;49.964;7.890;2023-05-01T12:05:43;26.40;99.90
15296;DHT22;7749;49.964;7.890;2023-05-01T12:08:15;26.60;99.90
15296;DHT22;7749;49.964;7.890;2023-05-01T12:10:55;26.90;99.90
15296;DHT22;7749;49.964;7.890;2023-05-01T12:13:24;26.90;99.90
15296;DHT22;7749;49.964;7.890;2023-05-01T12:15:55;26.90;99.90
15296;DHT22;7749;49.964;7.890;2023-05-01T12:18:23;27.10;99.90
15296;DHT22;7749;49.964;7.890;2023-05-01T12:20:52;27.40;99.90
15296;DHT22;7749;49.964;7.890;2023-05-01T12:23:50;27.20;99.90
15296;DHT22;7749;49.964;7.890;2023-05-01T12:26:20;26.90;99.90
15296;DHT22;7749;49.964;7.890;2023-05-01T12:28:58;26.90;99.90
15296;DHT22;7749;49.964;7.890;2023-05-01T12:31:28;26.60;99.90
15296;DHT22;7749;49.964;7.890;2023-05-01T12:34:00;26.30;99.90
15296;DHT22;7749;49.964;7.890;2023-05-01T12:36:33;25.90;99.90
15296;DHT22;7749;49.964;7.890;2023-05-01T12:39:05;25.70;99.90
15296;DHT22;7749;49.964;7.890;2023-05-01T12:41:39;26.30;99.90
15296;DHT22;7749;49.964;7.890;2023-05-01T12:44:22;26.80;99.90
15296;DHT22;7749;49.964;7.890;2023-05-01T12:47:01;27.60;99.90
15296;DHT22;7749;49.964;7.890;2023-05-01T12:49:33;27.90;99.90
15296;DHT22;7749;49.964;7.890;2023-05-01T12:52:07;27.60;99.90
15296;DHT22;7749;49.964;7.890;2023-05-01T12:54:37;27.20;99.90
15296;DHT22;7749;49.964;7.890;2023-05-01T12:57:09;27.10;99.90
15296;DHT22;7749;49.964;7.890;2023-05-01T12:59:41;27.30;99.90
15296;DHT22;7749;49.964;7.890;2023-05-01T13:02:12;27.60;99.90
15296;DHT22;7749;49.964;7.890;2023-05-01T13:04:43;29.50;99.90
15296;DHT22;7749;49.964;7.890;2023-05-01T13:07:11;30.30;99.90
15296;DHT22;7749;49.964;7.890;2023-05-01T13:10:10;30.60;99.90
15296;DHT22;7749;49.964;7.890;2023-05-01T13:12:43;29.90;99.90
15296;DHT22;7749;49.964;7.890;2023-05-01T13:15:20;29.30;99.90
15296;DHT22;7749;49.964;7.890;2023-05-01T13:17:48;28.80;99.90
15296;DHT22;7749;49.964;7.890;2023-05-01T13:20:25;27.90;99.90
15296;DHT22;7749;49.964;7.890;2023-05-01T13:22:53;27.50;99.90
15296;DHT22;7749;49.964;7.890;2023-05-01T13:25:24;27.50;99.90
15296;DHT22;7749;49.964;7.890;2023-05-01T13:27:52;27.10;99.90
15296;DHT22;7749;49.964;7.890;2023-05-01T13:30:30;28.00;99.90
15296;DHT22;7749;49.964;7.890;2023-05-01T13:32:58;28.40;99.90
15296;DHT22;7749;49.964;7.890;2023-05-01T13:35:26;27.90;99.90
15296;DHT22;7749;49.964;7.890;2023-05-01T13:37:54;27.20;99.90
15296;DHT22;7749;49.964;7.890;2023-05-01T13:40:23;26.80;99.90
15296;DHT22;7749;49.964;7.890;2023-05-01T13:42:52;26.70;99.90
15296;DHT22;7749;49.964;7.890;2023-05-01T13:45:23;26.50;99.90
15296;DHT22;7749;49.964;7.890;2023-05-01T13:47:52;26.10;99.90
15296;DHT22;7749;49.964;7.890;2023-05-01T13:50:21;25.80;99.90
15296;DHT22;7749;49.964;7.890;2023-05-01T13:52:49;26.50;99.90
15296;DHT22;7749;49.964;7.890;2023-05-01T13:55:17;27.30;99.90
15296;DHT22;7749;49.964;7.890;2023-05-01T13:57:45;27.50;99.90
15296;DHT22;7749;49.964;7.890;2023-05-01T14:00:16;27.70;99.90
15296;DHT22;7749;49.964;7.890;2023-05-01T14:02:47;28.00;99.90
15296;DHT22;7749;49.964;7.890;2023-05-01T14:05:18;28.00;99.90
15296;DHT22;7749;49.964;7.890;2023-05-01T14:07:54;27.40;99.90
15296;DHT22;7749;49.964;7.890;2023-05-01T14:10:22;26.70;99.90
15296;DHT22;7749;49.964;7.890;2023-05-01T14:12:57;26.30;99.90
15296;DHT22;7749;49.964;7.890;2023-05-01T14:15:26;25.90;99.90
15296;DHT22;7749;49.964;7.890;2023-05-01T14:17:55;25.50;99.90
15296;DHT22;7749;49.964;7.890;2023-05-01T14:20:25;24.90;99.90
15296;DHT22;7749;49.964;7.890;2023-05-01T14:22:53;24.70;99.90
15296;DHT22;7749;49.964;7.890;2023-05-01T14:25:32;24.60;99.90
15296;DHT22;7749;49.964;7.890;2023-05-01T14:28:04;24.40;99.90
15296;DHT22;7749;49.964;7.890;2023-05-01T14:30:34;24.40;99.90
15296;DHT22;7749;49.964;7.890;2023-05-01T14:33:05;24.20;99.90
15296;DHT22;7749;49.964;7.890;2023-05-01T14:35:50;23.90;99.90
15296;DHT22;7749;49.964;7.890;2023-05-01T14:38:19;24.00;99.90
15296;DHT22;7749;49.964;7.890;2023-05-01T14:40:47;24.10;99.90
15296;DHT22;7749;49.964;7.890;2023-05-01T14:43:19;24.30;99.90
15296;DHT22;7749;49.964;7.890;2023-05-01T14:45:48;25.40;99.90
15296;DHT22;7749;49.964;7.890;2023-05-01T14:48:21;27.70;99.90
15296;DHT22;7749;49.964;7.890;2023-05-01T14:50:50;28.80;99.90
15296;DHT22;7749;49.964;7.890;2023-05-01T14:53:17;28.60;99.90
15296;DHT22;7749;49.964;7.890;2023-05-01T14:55:48;28.70;99.90
15296;DHT22;7749;49.964;7.890;2023-05-01T14:58:16;30.10;99.90
15296;DHT22;7749;49.964;7.890;2023-05-01T15:00:44;32.00;99.90
15296;DHT22;7749;49.964;7.890;2023-05-01T15:03:12;34.10;99.90
15296;DHT22;7749;49.964;7.890;2023-05-01T15:05:43;35.20;99.90
15296;DHT22;7749;49.964;7.890;2023-05-01T15:08:15;35.20;99.90
15296;DHT22;7749;49.964;7.890;2023-05-01T15:10:43;34.70;99.90
15296;DHT22;7749;49.964;7.890;2023-05-01T15:13:13;34.20;99.90
15296;DHT22;7749;49.964;7.890;2023-05-01T15:15:43;33.70;99.90
15296;DHT22;7749;49.964;7.890;2023-05-01T15:18:11;33.40;99.90
15296;DHT22;7749;49.964;7.890;2023-05-01T15:20:39;32.30;99.90
15296;DHT22;7749;49.964;7.890;2023-05-01T15:23:07;30.90;99.90
15296;DHT22;7749;49.964;7.890;2023-05-01T15:25:36;30.50;99.90
15296;DHT22;7749;49.964;7.890;2023-05-01T15:28:03;30.30;99.90
15296;DHT22;7749;49.964;7.890;2023-05-01T15:30:31;28.70;99.90
15296;DHT22;7749;49.964;7.890;2023-05-01T15:32:59;27.50;99.90
15296;DHT22;7749;49.964;7.890;2023-05-01T15:35:28;26.30;99.90
15296;DHT22;7749;49.964;7.890;2023-05-01T15:37:56;25.20;99.90
15296;DHT22;7749;49.964;7.890;2023-05-01T15:40:24;24.30;99.90
15296;DHT22;7749;49.964;7.890;2023-05-01T15:42:51;23.60;99.90
15296;DHT22;7749;49.964;7.890;2023-05-01T15:45:19;23.20;99.90
15296;DHT22;7749;49.964;7.890;2023-05-01T15:47:47;22.80;99.90
15296;DHT22;7749;49.964;7.890;2023-05-01T15:50:15;22.50;99.90
15296;DHT22;7749;49.964;7.890;2023-05-01T15:52:42;22.20;99.90
15296;DHT22;7749;49.964;7.890;2023-05-01T15:55:13;22.10;99.90
15296;DHT22;7749;49.964;7.890;2023-05-01T15:57:44;22.00;99.90
15296;DHT22;7749;49.964;7.890;2023-05-01T16:00:12;22.10;99.90
15296;DHT22;7749;49.964;7.890;2023-05-01T16:02:41;21.90;99.90
15296;DHT22;7749;49.964;7.890;2023-05-01T16:05:09;21.80;99.90
15296;DHT22;7749;49.964;7.890;2023-05-01T16:07:38;21.90;99.90
15296;DHT22;7749;49.964;7.890;2023-05-01T16:10:07;21.80;99.90
15296;DHT22;7749;49.964;7.890;2023-05-01T16:12:35;21.80;99.90
15296;DHT22;7749;49.964;7.890;2023-05-01T16:15:03;22.20;99.90
15296;DHT22;7749;49.964;7.890;2023-05-01T16:17:31;22.90;99.90
15296;DHT22;7749;49.964;7.890;2023-05-01T16:20:08;23.40;99.90
15296;DHT22;7749;49.964;7.890;2023-05-01T16:22:47;23.40;99.90
15296;DHT22;7749;49.964;7.890;2023-05-01T16:25:15;23.30;99.90
15296;DHT22;7749;49.964;7.890;2023-05-01T16:27:43;23.00;99.90
15296;DHT22;7749;49.964;7.890;2023-05-01T16:30:12;23.00;99.90
15296;DHT22;7749;49.964;7.890;2023-05-01T16:32:43;23.00;99.90
15296;DHT22;7749;49.964;7.890;2023-05-01T16:35:15;22.90;99.90
15296;DHT22;7749;49.964;7.890;2023-05-01T16:37:46;22.80;99.90
15296;DHT22;7749;49.964;7.890;2023-05-01T16:40:17;22.60;99.90
15296;DHT22;7749;49.964;7.890;2023-05-01T16:42:49;22.30;99.90
15296;DHT22;7749;49.964;7.890;2023-05-01T16:45:21;22.10;99.90
15296;DHT22;7749;49.964;7.890;2023-05-01T16:47:48;21.90;99.90
15296;DHT22;7749;49.964;7.890;2023-05-01T16:50:17;21.70;99.90